sensor_id;sensor_type;location;lat;lon;timestamp;temperature;humidity
9820;DHT22;4949;48.482;9.206;2023-03-20T00:03:10;10.60;73.40
9820;DHT22;4949;48.482;9.206;2023-03-20T00:08:11;10.60;73.00
9820;DHT22;4949;48.482;9.206;2023-03-20T00:13:24;10.70;72.50
9820;DHT22;4949;48.482;9.206;2023-03-20T00:18:28;10.70;72.50
9820;DHT22;4949;48.482;9.206;2023-03-20T00:23:29;10.70;72.20
9820;DHT22;4949;48.482;9.206;2023-03-20T00:28:41;10.70;72.50
9820;DHT22;4949;48.482;9.206;2023-03-20T00:33:42;10.60;72.70
9820;DHT22;4949;48.482;9.206;2023-03-20T00:38:43;10.60;72.70
9820;DHT22;4949;48.482;9.206;2023-03-20T00:43:44;10.60;72.50
9820;DHT22;4949;48.482;9.206;2023-03-20T00:48:48;10.60;72.80
9820;DHT22;4949;48.482;9.206;2023-03-20T00:53:54;10.60;72.90
9820;DHT22;4949;48.482;9.206;2023-03-20T00:58:59;10.60;72.90
9820;DHT22;4949;48.482;9.206;2023-03-20T01:04:01;10.50;72.70
9820;DHT22;4949;48.482;9.206;2023-03-20T01:09:04;10.50;72.80
9820;DHT22;4949;48.482;9.206;2023-03-20T01:14:12;10.60;72.90
9820;DHT22;4949;48.482;9.206;2023-03-20T01:19:15;10.50;72.80
9820;DHT22;4949;48.482;9.206;2023-03-20T01:24:16;10.50;73.10
9820;DHT22;4949;48.482;9.206;2023-03-20T01:29:23;10.40;73.00
9820;DHT22;4949;48.482;9.206;2023-03-20T01:34:26;10.40;72.70
9820;DHT22;4949;48.482;9.206;2023-03-20T01:39:31;10.30;73.30
9820;DHT22;4949;48.482;9.206;2023-03-20T01:44:35;10.30;73.30
9820;DHT22;4949;48.482;9.206;2023-03-20T01:55:27;10.20;73.50
9820;DHT22;4949;48.482;9.206;2023-03-20T02:00:28;10.20;74.20
9820;DHT22;4949;48.482;9.206;2023-03-20T02:05:29;10.10;74.00
9820;DHT22;4949;48.482;9.206;2023-03-20T02:10:30;10.10;74.30
9820;DHT22;4949;48.482;9.206;2023-03-20T02:15:32;10.10;74.10
9820;DHT22;4949;48.482;9.206;2023-03-20T02:20:43;10.10;74.30
9820;DHT22;4949;48.482;9.206;2023-03-20T02:31:49;10.10;73.90
9820;DHT22;4949;48.482;9.206;2023-03-20T02:42:42;10.00;74.40
9820;DHT22;4949;48.482;9.206;2023-03-20T03:04:58;10.10;73.60
9820;DHT22;4949;48.482;9.206;2023-03-20T03:10:05;10.10;73.70
9820;DHT22;4949;48.482;9.206;2023-03-20T03:15:15;10.00;74.80
9820;DHT22;4949;48.482;9.206;2023-03-20T03:20:22;10.00;75.20
9820;DHT22;4949;48.482;9.206;2023-03-20T03:25:28;10.10;74.70
9820;DHT22;4949;48.482;9.206;2023-03-20T03:30:35;10.10;75.00
9820;DHT22;4949;48.482;9.206;2023-03-20T03:35:40;10.10;74.60
9820;DHT22;4949;48.482;9.206;2023-03-20T03:40:45;10.10;74.80
9820;DHT22;4949;48.482;9.206;2023-03-20T03:45:55;10.10;75.20
9820;DHT22;4949;48.482;9.206;2023-03-20T03:51:04;10.10;75.00
9820;DHT22;4949;48.482;9.206;2023-03-20T03:56:11;10.00;75.40
9820;DHT22;4949;48.482;9.206;2023-03-20T04:01:14;10.00;75.60
9820;DHT22;4949;48.482;9.206;2023-03-20T04:06:16;10.00;75.90
9820;DHT22;4949;48.482;9.206;2023-03-20T04:11:26;9.90;76.80
9820;DHT22;4949;48.482;9.206;2023-03-20T04:16:28;9.90;76.30
9820;DHT22;4949;48.482;9.206;2023-03-20T04:21:29;10.00;75.10
9820;DHT22;4949;48.482;9.206;2023-03-20T04:26:30;10.00;74.40
9820;DHT22;4949;48.482;9.206;2023-03-20T04:31:33;10.00;74.30
9820;DHT22;4949;48.482;9.206;2023-03-20T04:36:39;9.90;75.30
9820;DHT22;4949;48.482;9.206;2023-03-20T04:41:42;9.90;75.30
9820;DHT22;4949;48.482;9.206;2023-03-20T04:46:42;9.90;74.20
9820;DHT22;4949;48.482;9.206;2023-03-20T04:51:45;10.10;72.80
9820;DHT22;4949;48.482;9.206;2023-03-20T04:56:46;9.90;73.70
9820;DHT22;4949;48.482;9.206;2023-03-20T05:01:47;9.90;72.80
9820;DHT22;4949;48.482;9.206;2023-03-20T05:06:50;9.90;72.20
9820;DHT22;4949;48.482;9.206;2023-03-20T05:11:51;9.90;72.20
9820;DHT22;4949;48.482;9.206;2023-03-20T05:16:51;9.90;72.40
9820;DHT22;4949;48.482;9.206;2023-03-20T05:21:52;9.60;72.30
9820;DHT22;4949;48.482;9.206;2023-03-20T05:26:53;9.80;72.30
9820;DHT22;4949;48.482;9.206;2023-03-20T05:31:58;9.80;71.90
9820;DHT22;4949;48.482;9.206;2023-03-20T05:36:59;9.80;71.90
9820;DHT22;4949;48.482;9.206;2023-03-20T05:42:00;9.80;71.80
9820;DHT22;4949;48.482;9.206;2023-03-20T05:47:01;9.80;71.70
9820;DHT22;4949;48.482;9.206;2023-03-20T05:52:02;9.90;71.80
9820;DHT22;4949;48.482;9.206;2023-03-20T05:57:02;9.90;71.40
9820;DHT22;4949;48.482;9.206;2023-03-20T06:02:03;9.90;71.50
9820;DHT22;4949;48.482;9.206;2023-03-20T06:07:09;9.90;72.10
9820;DHT22;4949;48.482;9.206;2023-03-20T06:12:10;10.00;71.30
9820;DHT22;4949;48.482;9.206;2023-03-20T06:17:13;10.00;71.40
9820;DHT22;4949;48.482;9.206;2023-03-20T06:22:14;10.00;71.20
9820;DHT22;4949;48.482;9.206;2023-03-20T06:27:15;10.10;71.40
9820;DHT22;4949;48.482;9.206;2023-03-20T06:32:16;10.10;71.30
9820;DHT22;4949;48.482;9.206;2023-03-20T06:37:18;10.10;71.20
9820;DHT22;4949;48.482;9.206;2023-03-20T06:42:20;10.10;71.50
9820;DHT22;4949;48.482;9.206;2023-03-20T06:47:20;10.20;71.50
9820;DHT22;4949;48.482;9.206;2023-03-20T06:52:24;10.20;71.70
9820;DHT22;4949;48.482;9.206;2023-03-20T06:57:25;10.20;71.90
9820;DHT22;4949;48.482;9.206;2023-03-20T07:02:26;10.10;72.00
9820;DHT22;4949;48.482;9.206;2023-03-20T07:07:27;10.20;71.80
9820;DHT22;4949;48.482;9.206;2023-03-20T07:12:28;10.20;71.80
9820;DHT22;4949;48.482;9.206;2023-03-20T07:17:29;10.10;71.70
9820;DHT22;4949;48.482;9.206;2023-03-20T07:22:30;10.30;72.60
9820;DHT22;4949;48.482;9.206;2023-03-20T07:27:33;10.30;70.70
9820;DHT22;4949;48.482;9.206;2023-03-20T07:32:38;10.30;70.30
9820;DHT22;4949;48.482;9.206;2023-03-20T07:37:39;10.40;69.40
9820;DHT22;4949;48.482;9.206;2023-03-20T07:42:44;10.50;68.50
9820;DHT22;4949;48.482;9.206;2023-03-20T07:47:49;10.60;67.70
9820;DHT22;4949;48.482;9.206;2023-03-20T07:52:57;10.50;68.60
9820;DHT22;4949;48.482;9.206;2023-03-20T07:58:01;10.50;68.80
9820;DHT22;4949;48.482;9.206;2023-03-20T08:03:08;10.60;68.50
9820;DHT22;4949;48.482;9.206;2023-03-20T08:08:11;10.60;68.70
9820;DHT22;4949;48.482;9.206;2023-03-20T08:13:14;10.80;67.80
9820;DHT22;4949;48.482;9.206;2023-03-20T08:18:15;10.70;67.90
9820;DHT22;4949;48.482;9.206;2023-03-20T08:23:17;10.80;67.40
9820;DHT22;4949;48.482;9.206;2023-03-20T08:28:19;10.80;68.60
9820;DHT22;4949;48.482;9.206;2023-03-20T08:33:20;10.80;67.10
9820;DHT22;4949;48.482;9.206;2023-03-20T08:38:21;10.80;68.10
9820;DHT22;4949;48.482;9.206;2023-03-20T08:43:22;10.90;66.80
9820;DHT22;4949;48.482;9.206;2023-03-20T08:48:25;10.90;66.40
9820;DHT22;4949;48.482;9.206;2023-03-20T08:53:26;10.90;66.50
9820;DHT22;4949;48.482;9.206;2023-03-20T08:58:27;11.00;65.60
9820;DHT22;4949;48.482;9.206;2023-03-20T09:03:28;11.00;65.50
9820;DHT22;4949;48.482;9.206;2023-03-20T09:08:31;11.20;65.10
9820;DHT22;4949;48.482;9.206;2023-03-20T09:13:34;11.40;65.00
9820;DHT22;4949;48.482;9.206;2023-03-20T09:18:38;11.40;64.20
9820;DHT22;4949;48.482;9.206;2023-03-20T09:23:39;11.50;64.10
9820;DHT22;4949;48.482;9.206;2023-03-20T09:28:44;11.60;63.70
9820;DHT22;4949;48.482;9.206;2023-03-20T09:33:48;11.80;62.20
9820;DHT22;4949;48.482;9.206;2023-03-20T09:38:49;11.80;61.60
9820;DHT22;4949;48.482;9.206;2023-03-20T09:44:08;11.80;61.40
9820;DHT22;4949;48.482;9.206;2023-03-20T09:55:34;12.00;57.10
9820;DHT22;4949;48.482;9.206;2023-03-20T10:00:42;12.10;57.50
9820;DHT22;4949;48.482;9.206;2023-03-20T10:05:49;12.30;57.20
9820;DHT22;4949;48.482;9.206;2023-03-20T10:22:14;12.60;55.50
9820;DHT22;4949;48.482;9.206;2023-03-20T10:27:22;12.60;55.50
9820;DHT22;4949;48.482;9.206;2023-03-20T10:32:35;12.60;56.60
9820;DHT22;4949;48.482;9.206;2023-03-20T10:43:13;12.30;56.80
9820;DHT22;4949;48.482;9.206;2023-03-20T10:48:23;12.30;56.00
9820;DHT22;4949;48.482;9.206;2023-03-20T10:53:48;12.40;56.60
9820;DHT22;4949;48.482;9.206;2023-03-20T10:58:57;12.40;57.50
9820;DHT22;4949;48.482;9.206;2023-03-20T11:04:01;12.20;57.90
9820;DHT22;4949;48.482;9.206;2023-03-20T11:09:17;12.30;57.10
9820;DHT22;4949;48.482;9.206;2023-03-20T11:14:32;12.40;56.10
9820;DHT22;4949;48.482;9.206;2023-03-20T11:19:38;12.50;56.20
9820;DHT22;4949;48.482;9.206;2023-03-20T11:24:43;12.60;56.90
9820;DHT22;4949;48.482;9.206;2023-03-20T11:29:48;12.70;56.10
9820;DHT22;4949;48.482;9.206;2023-03-20T11:34:49;13.00;55.50
9820;DHT22;4949;48.482;9.206;2023-03-20T11:45:15;14.00;52.50
9820;DHT22;4949;48.482;9.206;2023-03-20T11:50:33;14.00;51.20
9820;DHT22;4949;48.482;9.206;2023-03-20T11:55:39;14.10;51.40
9820;DHT22;4949;48.482;9.206;2023-03-20T12:00:41;14.10;51.80
9820;DHT22;4949;48.482;9.206;2023-03-20T12:05:43;13.90;51.80
9820;DHT22;4949;48.482;9.206;2023-03-20T12:10:51;13.90;52.50
9820;DHT22;4949;48.482;9.206;2023-03-20T12:16:00;14.10;52.40
9820;DHT22;4949;48.482;9.206;2023-03-20T12:21:26;14.00;52.10
9820;DHT22;4949;48.482;9.206;2023-03-20T12:26:47;14.20;51.60
9820;DHT22;4949;48.482;9.206;2023-03-20T12:32:03;13.90;52.60
9820;DHT22;4949;48.482;9.206;2023-03-20T12:37:09;14.00;53.10
9820;DHT22;4949;48.482;9.206;2023-03-20T12:59:24;14.30;52.40
9820;DHT22;4949;48.482;9.206;2023-03-20T13:10:20;14.10;52.80
9820;DHT22;4949;48.482;9.206;2023-03-20T13:21:17;13.90;52.10
9820;DHT22;4949;48.482;9.206;2023-03-20T13:36:54;14.20;51.40
9820;DHT22;4949;48.482;9.206;2023-03-20T13:42:13;14.10;51.00
9820;DHT22;4949;48.482;9.206;2023-03-20T13:47:27;13.90;51.70
9820;DHT22;4949;48.482;9.206;2023-03-20T13:52:31;14.10;50.00
9820;DHT22;4949;48.482;9.206;2023-03-20T13:57:47;14.20;49.80
9820;DHT22;4949;48.482;9.206;2023-03-20T14:03:16;14.20;50.90
9820;DHT22;4949;48.482;9.206;2023-03-20T14:13:30;14.70;49.90
9820;DHT22;4949;48.482;9.206;2023-03-20T14:18:35;14.70;49.30
9820;DHT22;4949;48.482;9.206;2023-03-20T14:23:44;14.70;49.60
9820;DHT22;4949;48.482;9.206;2023-03-20T14:28:58;14.70;49.60
9820;DHT22;4949;48.482;9.206;2023-03-20T14:51:08;15.10;47.40
9820;DHT22;4949;48.482;9.206;2023-03-20T15:01:15;15.10;46.60
9820;DHT22;4949;48.482;9.206;2023-03-20T15:06:25;15.20;46.90
9820;DHT22;4949;48.482;9.206;2023-03-20T15:11:27;15.10;47.10
9820;DHT22;4949;48.482;9.206;2023-03-20T15:16:31;15.00;47.70
9820;DHT22;4949;48.482;9.206;2023-03-20T15:21:38;14.80;48.60
9820;DHT22;4949;48.482;9.206;2023-03-20T15:26:42;14.70;48.60
9820;DHT22;4949;48.482;9.206;2023-03-20T15:31:45;14.50;48.80
9820;DHT22;4949;48.482;9.206;2023-03-20T15:36:46;14.70;49.20
9820;DHT22;4949;48.482;9.206;2023-03-20T15:47:12;14.30;49.80
9820;DHT22;4949;48.482;9.206;2023-03-20T15:52:38;14.20;49.80
9820;DHT22;4949;48.482;9.206;2023-03-20T15:57:55;14.20;50.50
9820;DHT22;4949;48.482;9.206;2023-03-20T16:03:02;14.20;51.00
9820;DHT22;4949;48.482;9.206;2023-03-20T16:13:34;14.10;51.50
9820;DHT22;4949;48.482;9.206;2023-03-20T16:18:38;14.00;51.20
9820;DHT22;4949;48.482;9.206;2023-03-20T16:23:43;14.10;51.70
9820;DHT22;4949;48.482;9.206;2023-03-20T16:28:48;13.90;51.40
9820;DHT22;4949;48.482;9.206;2023-03-20T16:33:50;13.90;51.60
9820;DHT22;4949;48.482;9.206;2023-03-20T16:54:34;13.80;52.40
9820;DHT22;4949;48.482;9.206;2023-03-20T16:59:38;13.90;52.50
9820;DHT22;4949;48.482;9.206;2023-03-20T17:04:39;14.00;52.40
9820;DHT22;4949;48.482;9.206;2023-03-20T17:15:21;13.90;52.50
9820;DHT22;4949;48.482;9.206;2023-03-20T17:20:27;13.80;52.50
9820;DHT22;4949;48.482;9.206;2023-03-20T17:25:30;13.80;52.90
9820;DHT22;4949;48.482;9.206;2023-03-20T17:30:31;13.80;53.20
9820;DHT22;4949;48.482;9.206;2023-03-20T17:35:32;13.50;53.10
9820;DHT22;4949;48.482;9.206;2023-03-20T17:40:33;13.80;53.70
9820;DHT22;4949;48.482;9.206;2023-03-20T17:45:33;13.90;54.00
9820;DHT22;4949;48.482;9.206;2023-03-20T17:50:37;13.70;53.80
9820;DHT22;4949;48.482;9.206;2023-03-20T17:55:37;13.60;54.70
9820;DHT22;4949;48.482;9.206;2023-03-20T18:00:38;13.50;54.00
9820;DHT22;4949;48.482;9.206;2023-03-20T18:05:39;13.40;54.10
9820;DHT22;4949;48.482;9.206;2023-03-20T18:10:41;13.40;54.90
9820;DHT22;4949;48.482;9.206;2023-03-20T18:15:42;13.40;54.90
9820;DHT22;4949;48.482;9.206;2023-03-20T18:20:44;13.20;55.50
9820;DHT22;4949;48.482;9.206;2023-03-20T18:25:46;13.10;55.80
9820;DHT22;4949;48.482;9.206;2023-03-20T18:30:49;13.00;56.10
9820;DHT22;4949;48.482;9.206;2023-03-20T18:35:51;13.00;55.50
9820;DHT22;4949;48.482;9.206;2023-03-20T18:40:51;13.00;55.70
9820;DHT22;4949;48.482;9.206;2023-03-20T18:45:55;13.00;55.80
9820;DHT22;4949;48.482;9.206;2023-03-20T18:50:55;13.00;56.00
9820;DHT22;4949;48.482;9.206;2023-03-20T18:56:00;12.90;56.20
9820;DHT22;4949;48.482;9.206;2023-03-20T19:01:01;12.90;56.20
9820;DHT22;4949;48.482;9.206;2023-03-20T19:06:03;12.80;56.40
9820;DHT22;4949;48.482;9.206;2023-03-20T19:11:06;12.80;56.30
9820;DHT22;4949;48.482;9.206;2023-03-20T19:16:24;12.80;56.40
9820;DHT22;4949;48.482;9.206;2023-03-20T19:21:27;12.70;56.50
9820;DHT22;4949;48.482;9.206;2023-03-20T19:26:29;12.60;56.30
9820;DHT22;4949;48.482;9.206;2023-03-20T19:31:33;12.60;56.70
9820;DHT22;4949;48.482;9.206;2023-03-20T19:36:36;12.60;57.10
9820;DHT22;4949;48.482;9.206;2023-03-20T19:41:37;12.60;56.80
9820;DHT22;4949;48.482;9.206;2023-03-20T19:46:38;12.60;56.80
9820;DHT22;4949;48.482;9.206;2023-03-20T19:51:39;12.50;57.30
9820;DHT22;4949;48.482;9.206;2023-03-20T19:56:42;12.40;57.30
9820;DHT22;4949;48.482;9.206;2023-03-20T20:01:43;12.30;57.70
9820;DHT22;4949;48.482;9.206;2023-03-20T20:06:44;12.30;57.40
9820;DHT22;4949;48.482;9.206;2023-03-20T20:11:45;12.30;57.80
9820;DHT22;4949;48.482;9.206;2023-03-20T20:16:46;12.30;58.00
9820;DHT22;4949;48.482;9.206;2023-03-20T20:21:51;12.20;58.10
9820;DHT22;4949;48.482;9.206;2023-03-20T20:26:53;12.10;58.60
9820;DHT22;4949;48.482;9.206;2023-03-20T20:31:55;12.20;59.10
9820;DHT22;4949;48.482;9.206;2023-03-20T20:36:58;12.10;58.50
9820;DHT22;4949;48.482;9.206;2023-03-20T20:42:02;12.10;58.50
9820;DHT22;4949;48.482;9.206;2023-03-20T20:47:03;12.20;58.50
9820;DHT22;4949;48.482;9.206;2023-03-20T20:52:07;12.10;58.50
9820;DHT22;4949;48.482;9.206;2023-03-20T20:57:09;12.10;58.60
9820;DHT22;4949;48.482;9.206;2023-03-20T21:02:11;12.10;58.70
9820;DHT22;4949;48.482;9.206;2023-03-20T21:07:12;11.90;59.20
9820;DHT22;4949;48.482;9.206;2023-03-20T21:12:16;11.80;59.60
9820;DHT22;4949;48.482;9.206;2023-03-20T21:17:18;11.80;60.00
9820;DHT22;4949;48.482;9.206;2023-03-20T21:22:19;11.70;60.10
9820;DHT22;4949;48.482;9.206;2023-03-20T21:27:23;11.70;60.40
9820;DHT22;4949;48.482;9.206;2023-03-20T21:32:24;11.70;61.00
9820;DHT22;4949;48.482;9.206;2023-03-20T21:37:30;11.60;61.40
9820;DHT22;4949;48.482;9.206;2023-03-20T21:42:32;11.60;61.20
9820;DHT22;4949;48.482;9.206;2023-03-20T21:47:36;11.60;61.90
9820;DHT22;4949;48.482;9.206;2023-03-20T21:52:39;11.50;62.10
9820;DHT22;4949;48.482;9.206;2023-03-20T21:57:41;11.40;62.60
9820;DHT22;4949;48.482;9.206;2023-03-20T22:02:41;11.40;63.10
9820;DHT22;4949;48.482;9.206;2023-03-20T22:07:45;11.40;63.20
9820;DHT22;4949;48.482;9.206;2023-03-20T22:12:48;11.50;63.50
9820;DHT22;4949;48.482;9.206;2023-03-20T22:17:51;11.40;63.30
9820;DHT22;4949;48.482;9.206;2023-03-20T22:22:55;11.40;63.30
9820;DHT22;4949;48.482;9.206;2023-03-20T22:27:56;11.40;63.00
9820;DHT22;4949;48.482;9.206;2023-03-20T22:32:56;11.30;63.30
9820;DHT22;4949;48.482;9.206;2023-03-20T22:37:57;11.40;63.40
9820;DHT22;4949;48.482;9.206;2023-03-20T22:43:00;11.30;63.80
9820;DHT22;4949;48.482;9.206;2023-03-20T22:48:01;11.30;63.80
9820;DHT22;4949;48.482;9.206;2023-03-20T22:53:02;11.20;63.80
9820;DHT22;4949;48.482;9.206;2023-03-20T22:58:03;11.20;64.10
9820;DHT22;4949;48.482;9.206;2023-03-20T23:03:04;11.20;64.00
9820;DHT22;4949;48.482;9.206;2023-03-20T23:08:09;11.20;64.40
9820;DHT22;4949;48.482;9.206;2023-03-20T23:13:11;11.10;64.60
9820;DHT22;4949;48.482;9.206;2023-03-20T23:18:13;11.10;65.30
9820;DHT22;4949;48.482;9.206;2023-03-20T23:23:14;11.00;65.30
9820;DHT22;4949;48.482;9.206;2023-03-20T23:28:15;11.00;66.00
9820;DHT22;4949;48.482;9.206;2023-03-20T23:33:16;10.90;66.30
9820;DHT22;4949;48.482;9.206;2023-03-20T23:38:19;10.80;66.60
9820;DHT22;4949;48.482;9.206;2023-03-20T23:43:23;10.80;66.70
9820;DHT22;4949;48.482;9.206;2023-03-20T23:48:24;10.70;67.20
9820;DHT22;4949;48.482;9.206;2023-03-20T23:53:27;10.80;67.70
9820;DHT22;4949;48.482;9.206;2023-03-20T23:58:28;10.70;67.70
